<?xml version="1.0" encoding="UTF-8" standalone="no" ?>
<gpx xmlns="http://www.topografix.com/GPX/1/1" xmlns:xsi="http://www.w3.org/2001/XMLSchema-instance" xsi:schemaLocation="http://www.topografix.com/GPX/1/1 http://www.topografix.com/GPX/1/1/gpx.xsd" version="1.1" creator="VisuGPX - https://www.visugpx.com">
  <metadata>
    <name>Verdon - Le Grand Devançon</name>
    <desc><![CDATA[ Une grande boucle sur les hauteurs dans les bois et les champs de lavandes.]]></desc>
  </metadata>
  <trk>
    <name><![CDATA[Le Grand Devançon en boucle depuis Château Laval]]></name>
    <extensions>
      <line xmlns="http://www.topografix.com/GPX/gpx_style/0/2">
        <color>0000FF</color>
        <width>4</width>
      </line>
    </extensions>
    <trkseg>
      <trkpt lat="43.76709" lon="5.89812">
        <ele>348</ele>
        <time>2025-02-10T16:15:13.000Z</time>
      </trkpt>
      <trkpt lat="43.76757" lon="5.89799">
        <ele>346</ele>
        <time>2025-02-10T16:16:09.000Z</time>
      </trkpt>
      <trkpt lat="43.76786" lon="5.897">
        <ele>341</ele>
        <time>2025-02-10T16:17:37.000Z</time>
      </trkpt>
      <trkpt lat="43.76849" lon="5.8964">
        <ele>340</ele>
        <time>2025-02-10T16:19:04.000Z</time>
      </trkpt>
      <trkpt lat="43.76853" lon="5.89633">
        <ele>340</ele>
        <time>2025-02-10T16:19:12.000Z</time>
      </trkpt>
      <trkpt lat="43.7687" lon="5.89662">
        <ele>340</ele>
        <time>2025-02-10T16:19:43.000Z</time>
      </trkpt>
      <trkpt lat="43.76955" lon="5.89578">
        <ele>352</ele>
        <time>2025-02-10T16:23:46.000Z</time>
      </trkpt>
      <trkpt lat="43.77036" lon="5.89696">
        <ele>352</ele>
        <time>2025-02-10T16:26:01.000Z</time>
      </trkpt>
      <trkpt lat="43.77104" lon="5.89756">
        <ele>354</ele>
        <time>2025-02-10T16:27:54.000Z</time>
      </trkpt>
      <trkpt lat="43.77164" lon="5.89803">
        <ele>357</ele>
        <time>2025-02-10T16:29:44.000Z</time>
      </trkpt>
      <trkpt lat="43.77222" lon="5.89866">
        <ele>359</ele>
        <time>2025-02-10T16:31:29.000Z</time>
      </trkpt>
      <trkpt lat="43.77231" lon="5.8986">
        <ele>360</ele>
        <time>2025-02-10T16:31:50.000Z</time>
      </trkpt>
      <trkpt lat="43.7725" lon="5.8984">
        <ele>363</ele>
        <time>2025-02-10T16:32:48.000Z</time>
      </trkpt>
      <trkpt lat="43.77303" lon="5.89773">
        <ele>366</ele>
        <time>2025-02-10T16:34:41.000Z</time>
      </trkpt>
      <trkpt lat="43.77352" lon="5.8971">
        <ele>370</ele>
        <time>2025-02-10T16:36:39.000Z</time>
      </trkpt>
      <trkpt lat="43.77378" lon="5.89681">
        <ele>372</ele>
        <time>2025-02-10T16:37:38.000Z</time>
      </trkpt>
      <trkpt lat="43.77403" lon="5.89651">
        <ele>374</ele>
        <time>2025-02-10T16:38:37.000Z</time>
      </trkpt>
      <trkpt lat="43.77474" lon="5.8963">
        <ele>378</ele>
        <time>2025-02-10T16:40:41.000Z</time>
      </trkpt>
      <trkpt lat="43.77596" lon="5.89538">
        <ele>386</ele>
        <time>2025-02-10T16:44:42.000Z</time>
      </trkpt>
      <trkpt lat="43.77671" lon="5.89476">
        <ele>392</ele>
        <time>2025-02-10T16:47:24.000Z</time>
      </trkpt>
      <trkpt lat="43.77749" lon="5.89472">
        <ele>398</ele>
        <time>2025-02-10T16:49:54.000Z</time>
      </trkpt>
      <trkpt lat="43.77788" lon="5.89467">
        <ele>401</ele>
        <time>2025-02-10T16:51:10.000Z</time>
      </trkpt>
      <trkpt lat="43.77874" lon="5.89449">
        <ele>406</ele>
        <time>2025-02-10T16:53:41.000Z</time>
      </trkpt>
      <trkpt lat="43.77912" lon="5.89449">
        <ele>408</ele>
        <time>2025-02-10T16:54:45.000Z</time>
      </trkpt>
      <trkpt lat="43.77949" lon="5.89454">
        <ele>410</ele>
        <time>2025-02-10T16:55:48.000Z</time>
      </trkpt>
      <trkpt lat="43.78008" lon="5.8948">
        <ele>415</ele>
        <time>2025-02-10T16:57:50.000Z</time>
      </trkpt>
      <trkpt lat="43.78125" lon="5.89499">
        <ele>422</ele>
        <time>2025-02-10T17:01:17.000Z</time>
      </trkpt>
      <trkpt lat="43.78168" lon="5.89526">
        <ele>425</ele>
        <time>2025-02-10T17:02:42.000Z</time>
      </trkpt>
      <trkpt lat="43.7822" lon="5.89542">
        <ele>429</ele>
        <time>2025-02-10T17:04:24.000Z</time>
      </trkpt>
      <trkpt lat="43.78247" lon="5.89566">
        <ele>431</ele>
        <time>2025-02-10T17:05:22.000Z</time>
      </trkpt>
      <trkpt lat="43.78263" lon="5.89591">
        <ele>433</ele>
        <time>2025-02-10T17:06:10.000Z</time>
      </trkpt>
      <trkpt lat="43.78319" lon="5.8966">
        <ele>440</ele>
        <time>2025-02-10T17:08:47.000Z</time>
      </trkpt>
      <trkpt lat="43.78348" lon="5.89693">
        <ele>442</ele>
        <time>2025-02-10T17:09:51.000Z</time>
      </trkpt>
      <trkpt lat="43.78387" lon="5.89703">
        <ele>445</ele>
        <time>2025-02-10T17:11:07.000Z</time>
      </trkpt>
      <trkpt lat="43.7844" lon="5.8975">
        <ele>449</ele>
        <time>2025-02-10T17:13:01.000Z</time>
      </trkpt>
      <trkpt lat="43.7847" lon="5.89787">
        <ele>452</ele>
        <time>2025-02-10T17:14:18.000Z</time>
      </trkpt>
      <trkpt lat="43.7849" lon="5.89792">
        <ele>454</ele>
        <time>2025-02-10T17:15:01.000Z</time>
      </trkpt>
      <trkpt lat="43.78524" lon="5.89781">
        <ele>456</ele>
        <time>2025-02-10T17:16:02.000Z</time>
      </trkpt>
      <trkpt lat="43.78572" lon="5.89766">
        <ele>460</ele>
        <time>2025-02-10T17:17:39.000Z</time>
      </trkpt>
      <trkpt lat="43.78599" lon="5.89778">
        <ele>462</ele>
        <time>2025-02-10T17:18:32.000Z</time>
      </trkpt>
      <trkpt lat="43.78638" lon="5.89784">
        <ele>465</ele>
        <time>2025-02-10T17:19:48.000Z</time>
      </trkpt>
      <trkpt lat="43.78687" lon="5.89793">
        <ele>470</ele>
        <time>2025-02-10T17:21:36.000Z</time>
      </trkpt>
      <trkpt lat="43.78713" lon="5.89765">
        <ele>476</ele>
        <time>2025-02-10T17:23:16.000Z</time>
      </trkpt>
      <trkpt lat="43.78746" lon="5.89737">
        <ele>485</ele>
        <time>2025-02-10T17:25:32.000Z</time>
      </trkpt>
      <trkpt lat="43.78785" lon="5.89714">
        <ele>494</ele>
        <time>2025-02-10T17:27:54.000Z</time>
      </trkpt>
      <trkpt lat="43.78821" lon="5.89721">
        <ele>501</ele>
        <time>2025-02-10T17:29:47.000Z</time>
      </trkpt>
      <trkpt lat="43.78856" lon="5.89735">
        <ele>505</ele>
        <time>2025-02-10T17:31:11.000Z</time>
      </trkpt>
      <trkpt lat="43.78899" lon="5.89745">
        <ele>511</ele>
        <time>2025-02-10T17:33:03.000Z</time>
      </trkpt>
      <trkpt lat="43.78909" lon="5.89795">
        <ele>514</ele>
        <time>2025-02-10T17:34:16.000Z</time>
      </trkpt>
      <trkpt lat="43.78921" lon="5.89831">
        <ele>514</ele>
        <time>2025-02-10T17:34:49.000Z</time>
      </trkpt>
      <trkpt lat="43.78946" lon="5.89872">
        <ele>513</ele>
        <time>2025-02-10T17:35:34.000Z</time>
      </trkpt>
      <trkpt lat="43.7898" lon="5.89931">
        <ele>515</ele>
        <time>2025-02-10T17:36:57.000Z</time>
      </trkpt>
      <trkpt lat="43.79069" lon="5.90068">
        <ele>515</ele>
        <time>2025-02-10T17:39:30.000Z</time>
      </trkpt>
      <trkpt lat="43.79112" lon="5.90096">
        <ele>516</ele>
        <time>2025-02-10T17:40:35.000Z</time>
      </trkpt>
      <trkpt lat="43.79326" lon="5.90136">
        <ele>516</ele>
        <time>2025-02-10T17:44:42.000Z</time>
      </trkpt>
      <trkpt lat="43.79406" lon="5.90145">
        <ele>519</ele>
        <time>2025-02-10T17:46:46.000Z</time>
      </trkpt>
      <trkpt lat="43.79471" lon="5.90168">
        <ele>517</ele>
        <time>2025-02-10T17:48:02.000Z</time>
      </trkpt>
      <trkpt lat="43.79522" lon="5.90237">
        <ele>519</ele>
        <time>2025-02-10T17:49:44.000Z</time>
      </trkpt>
      <trkpt lat="43.79633" lon="5.90354">
        <ele>514</ele>
        <time>2025-02-10T17:52:24.000Z</time>
      </trkpt>
      <trkpt lat="43.79656" lon="5.90373">
        <ele>514</ele>
        <time>2025-02-10T17:52:55.000Z</time>
      </trkpt>
      <trkpt lat="43.79729" lon="5.90397">
        <ele>519</ele>
        <time>2025-02-10T17:55:12.000Z</time>
      </trkpt>
      <trkpt lat="43.79836" lon="5.90432">
        <ele>525</ele>
        <time>2025-02-10T17:58:20.000Z</time>
      </trkpt>
      <trkpt lat="43.79812" lon="5.90365">
        <ele>524</ele>
        <time>2025-02-10T17:59:22.000Z</time>
      </trkpt>
      <trkpt lat="43.79801" lon="5.90284">
        <ele>523</ele>
        <time>2025-02-10T18:00:30.000Z</time>
      </trkpt>
      <trkpt lat="43.79792" lon="5.9019">
        <ele>521</ele>
        <time>2025-02-10T18:01:48.000Z</time>
      </trkpt>
      <trkpt lat="43.79771" lon="5.90096">
        <ele>519</ele>
        <time>2025-02-10T18:03:09.000Z</time>
      </trkpt>
      <trkpt lat="43.79762" lon="5.9001">
        <ele>517</ele>
        <time>2025-02-10T18:04:20.000Z</time>
      </trkpt>
      <trkpt lat="43.79641" lon="5.89721">
        <ele>518</ele>
        <time>2025-02-10T18:09:06.000Z</time>
      </trkpt>
      <trkpt lat="43.79622" lon="5.89647">
        <ele>517</ele>
        <time>2025-02-10T18:10:11.000Z</time>
      </trkpt>
      <trkpt lat="43.79616" lon="5.89578">
        <ele>517</ele>
        <time>2025-02-10T18:11:09.000Z</time>
      </trkpt>
      <trkpt lat="43.79641" lon="5.89451">
        <ele>519</ele>
        <time>2025-02-10T18:13:18.000Z</time>
      </trkpt>
      <trkpt lat="43.79659" lon="5.89326">
        <ele>519</ele>
        <time>2025-02-10T18:15:03.000Z</time>
      </trkpt>
      <trkpt lat="43.79638" lon="5.89253">
        <ele>518</ele>
        <time>2025-02-10T18:16:08.000Z</time>
      </trkpt>
      <trkpt lat="43.79595" lon="5.8918">
        <ele>518</ele>
        <time>2025-02-10T18:17:26.000Z</time>
      </trkpt>
      <trkpt lat="43.79546" lon="5.89123">
        <ele>517</ele>
        <time>2025-02-10T18:18:39.000Z</time>
      </trkpt>
      <trkpt lat="43.79521" lon="5.89063">
        <ele>516</ele>
        <time>2025-02-10T18:19:36.000Z</time>
      </trkpt>
      <trkpt lat="43.79509" lon="5.88969">
        <ele>513</ele>
        <time>2025-02-10T18:20:55.000Z</time>
      </trkpt>
      <trkpt lat="43.79516" lon="5.88838">
        <ele>509</ele>
        <time>2025-02-10T18:22:43.000Z</time>
      </trkpt>
      <trkpt lat="43.79552" lon="5.88715">
        <ele>510</ele>
        <time>2025-02-10T18:24:43.000Z</time>
      </trkpt>
      <trkpt lat="43.79605" lon="5.886">
        <ele>510</ele>
        <time>2025-02-10T18:26:36.000Z</time>
      </trkpt>
      <trkpt lat="43.79623" lon="5.88484">
        <ele>509</ele>
        <time>2025-02-10T18:28:14.000Z</time>
      </trkpt>
      <trkpt lat="43.79617" lon="5.88396">
        <ele>509</ele>
        <time>2025-02-10T18:29:27.000Z</time>
      </trkpt>
      <trkpt lat="43.79604" lon="5.883">
        <ele>509</ele>
        <time>2025-02-10T18:30:48.000Z</time>
      </trkpt>
      <trkpt lat="43.79602" lon="5.88176">
        <ele>508</ele>
        <time>2025-02-10T18:32:30.000Z</time>
      </trkpt>
      <trkpt lat="43.79594" lon="5.88103">
        <ele>507</ele>
        <time>2025-02-10T18:33:31.000Z</time>
      </trkpt>
      <trkpt lat="43.79607" lon="5.88037">
        <ele>500</ele>
        <time>2025-02-10T18:34:28.000Z</time>
      </trkpt>
      <trkpt lat="43.796" lon="5.87828">
        <ele>478</ele>
        <time>2025-02-10T18:37:21.000Z</time>
      </trkpt>
      <trkpt lat="43.7964" lon="5.87739">
        <ele>472</ele>
        <time>2025-02-10T18:38:48.000Z</time>
      </trkpt>
      <trkpt lat="43.7965" lon="5.87694">
        <ele>470</ele>
        <time>2025-02-10T18:39:27.000Z</time>
      </trkpt>
      <trkpt lat="43.79699" lon="5.876">
        <ele>462</ele>
        <time>2025-02-10T18:41:03.000Z</time>
      </trkpt>
      <trkpt lat="43.79763" lon="5.8744">
        <ele>453</ele>
        <time>2025-02-10T18:43:34.000Z</time>
      </trkpt>
      <trkpt lat="43.79789" lon="5.87317">
        <ele>454</ele>
        <time>2025-02-10T18:45:30.000Z</time>
      </trkpt>
      <trkpt lat="43.79782" lon="5.87289">
        <ele>455</ele>
        <time>2025-02-10T18:46:05.000Z</time>
      </trkpt>
      <trkpt lat="43.79767" lon="5.87277">
        <ele>455</ele>
        <time>2025-02-10T18:46:25.000Z</time>
      </trkpt>
      <trkpt lat="43.79714" lon="5.87267">
        <ele>451</ele>
        <time>2025-02-10T18:47:26.000Z</time>
      </trkpt>
      <trkpt lat="43.79638" lon="5.87204">
        <ele>452</ele>
        <time>2025-02-10T18:49:18.000Z</time>
      </trkpt>
      <trkpt lat="43.79606" lon="5.87165">
        <ele>451</ele>
        <time>2025-02-10T18:50:07.000Z</time>
      </trkpt>
      <trkpt lat="43.79597" lon="5.87106">
        <ele>451</ele>
        <time>2025-02-10T18:50:56.000Z</time>
      </trkpt>
      <trkpt lat="43.79611" lon="5.86943">
        <ele>442</ele>
        <time>2025-02-10T18:53:12.000Z</time>
      </trkpt>
      <trkpt lat="43.79699" lon="5.86639">
        <ele>433</ele>
        <time>2025-02-10T18:57:42.000Z</time>
      </trkpt>
      <trkpt lat="43.79702" lon="5.86604">
        <ele>430</ele>
        <time>2025-02-10T18:58:12.000Z</time>
      </trkpt>
      <trkpt lat="43.79645" lon="5.86559">
        <ele>422</ele>
        <time>2025-02-10T18:59:27.000Z</time>
      </trkpt>
      <trkpt lat="43.7962" lon="5.86496">
        <ele>416</ele>
        <time>2025-02-10T19:00:26.000Z</time>
      </trkpt>
      <trkpt lat="43.79622" lon="5.86452">
        <ele>414</ele>
        <time>2025-02-10T19:01:03.000Z</time>
      </trkpt>
      <trkpt lat="43.79643" lon="5.86352">
        <ele>416</ele>
        <time>2025-02-10T19:02:49.000Z</time>
      </trkpt>
      <trkpt lat="43.79654" lon="5.8625">
        <ele>410</ele>
        <time>2025-02-10T19:04:15.000Z</time>
      </trkpt>
      <trkpt lat="43.79629" lon="5.86053">
        <ele>412</ele>
        <time>2025-02-10T19:07:21.000Z</time>
      </trkpt>
      <trkpt lat="43.79626" lon="5.85961">
        <ele>420</ele>
        <time>2025-02-10T19:10:00.000Z</time>
      </trkpt>
      <trkpt lat="43.79589" lon="5.85839">
        <ele>411</ele>
        <time>2025-02-10T19:11:49.000Z</time>
      </trkpt>
      <trkpt lat="43.79532" lon="5.85716">
        <ele>393</ele>
        <time>2025-02-10T19:13:50.000Z</time>
      </trkpt>
      <trkpt lat="43.79509" lon="5.85568">
        <ele>388</ele>
        <time>2025-02-10T19:15:55.000Z</time>
      </trkpt>
      <trkpt lat="43.79484" lon="5.85445">
        <ele>385</ele>
        <time>2025-02-10T19:17:41.000Z</time>
      </trkpt>
      <trkpt lat="43.79458" lon="5.85315">
        <ele>384</ele>
        <time>2025-02-10T19:19:33.000Z</time>
      </trkpt>
      <trkpt lat="43.79388" lon="5.85178">
        <ele>384</ele>
        <time>2025-02-10T19:21:52.000Z</time>
      </trkpt>
      <trkpt lat="43.79375" lon="5.85144">
        <ele>382</ele>
        <time>2025-02-10T19:22:24.000Z</time>
      </trkpt>
      <trkpt lat="43.79383" lon="5.85058">
        <ele>381</ele>
        <time>2025-02-10T19:23:35.000Z</time>
      </trkpt>
      <trkpt lat="43.79383" lon="5.84805">
        <ele>375</ele>
        <time>2025-02-10T19:27:04.000Z</time>
      </trkpt>
      <trkpt lat="43.79372" lon="5.84676">
        <ele>369</ele>
        <time>2025-02-10T19:28:52.000Z</time>
      </trkpt>
      <trkpt lat="43.79342" lon="5.84569">
        <ele>368</ele>
        <time>2025-02-10T19:30:27.000Z</time>
      </trkpt>
      <trkpt lat="43.79322" lon="5.84589">
        <ele>365</ele>
        <time>2025-02-10T19:30:55.000Z</time>
      </trkpt>
      <trkpt lat="43.7927" lon="5.84729">
        <ele>348</ele>
        <time>2025-02-10T19:33:05.000Z</time>
      </trkpt>
      <trkpt lat="43.79265" lon="5.84792">
        <ele>341</ele>
        <time>2025-02-10T19:33:58.000Z</time>
      </trkpt>
      <trkpt lat="43.79237" lon="5.84926">
        <ele>340</ele>
        <time>2025-02-10T19:35:53.000Z</time>
      </trkpt>
      <trkpt lat="43.79207" lon="5.84904">
        <ele>344</ele>
        <time>2025-02-10T19:37:14.000Z</time>
      </trkpt>
      <trkpt lat="43.79193" lon="5.84864">
        <ele>343</ele>
        <time>2025-02-10T19:37:50.000Z</time>
      </trkpt>
      <trkpt lat="43.79174" lon="5.84893">
        <ele>347</ele>
        <time>2025-02-10T19:39:03.000Z</time>
      </trkpt>
      <trkpt lat="43.79159" lon="5.84966">
        <ele>359</ele>
        <time>2025-02-10T19:42:09.000Z</time>
      </trkpt>
      <trkpt lat="43.79061" lon="5.85177">
        <ele>376</ele>
        <time>2025-02-10T19:48:31.000Z</time>
      </trkpt>
      <trkpt lat="43.78978" lon="5.85344">
        <ele>383</ele>
        <time>2025-02-10T19:52:31.000Z</time>
      </trkpt>
      <trkpt lat="43.78916" lon="5.85394">
        <ele>393</ele>
        <time>2025-02-10T19:55:36.000Z</time>
      </trkpt>
      <trkpt lat="43.78868" lon="5.8546">
        <ele>405</ele>
        <time>2025-02-10T19:58:57.000Z</time>
      </trkpt>
      <trkpt lat="43.78834" lon="5.85531">
        <ele>413</ele>
        <time>2025-02-10T20:01:29.000Z</time>
      </trkpt>
      <trkpt lat="43.78815" lon="5.85611">
        <ele>419</ele>
        <time>2025-02-10T20:03:40.000Z</time>
      </trkpt>
      <trkpt lat="43.78793" lon="5.85667">
        <ele>424</ele>
        <time>2025-02-10T20:05:25.000Z</time>
      </trkpt>
      <trkpt lat="43.78754" lon="5.85721">
        <ele>426</ele>
        <time>2025-02-10T20:06:49.000Z</time>
      </trkpt>
      <trkpt lat="43.78693" lon="5.85797">
        <ele>434</ele>
        <time>2025-02-10T20:09:45.000Z</time>
      </trkpt>
      <trkpt lat="43.78634" lon="5.85946">
        <ele>438</ele>
        <time>2025-02-10T20:12:47.000Z</time>
      </trkpt>
      <trkpt lat="43.78591" lon="5.86025">
        <ele>440</ele>
        <time>2025-02-10T20:14:29.000Z</time>
      </trkpt>
      <trkpt lat="43.78581" lon="5.86075">
        <ele>439</ele>
        <time>2025-02-10T20:15:12.000Z</time>
      </trkpt>
      <trkpt lat="43.78527" lon="5.86161">
        <ele>438</ele>
        <time>2025-02-10T20:16:47.000Z</time>
      </trkpt>
      <trkpt lat="43.78392" lon="5.86282">
        <ele>440</ele>
        <time>2025-02-10T20:20:12.000Z</time>
      </trkpt>
      <trkpt lat="43.78238" lon="5.86446">
        <ele>455</ele>
        <time>2025-02-10T20:26:29.000Z</time>
      </trkpt>
      <trkpt lat="43.78177" lon="5.86662">
        <ele>469</ele>
        <time>2025-02-10T20:32:04.000Z</time>
      </trkpt>
      <trkpt lat="43.78125" lon="5.86742">
        <ele>477</ele>
        <time>2025-02-10T20:34:56.000Z</time>
      </trkpt>
      <trkpt lat="43.78092" lon="5.86806">
        <ele>485</ele>
        <time>2025-02-10T20:37:23.000Z</time>
      </trkpt>
      <trkpt lat="43.78001" lon="5.86941">
        <ele>495</ele>
        <time>2025-02-10T20:41:39.000Z</time>
      </trkpt>
      <trkpt lat="43.77953" lon="5.87037">
        <ele>498</ele>
        <time>2025-02-10T20:43:46.000Z</time>
      </trkpt>
      <trkpt lat="43.77904" lon="5.87096">
        <ele>498</ele>
        <time>2025-02-10T20:45:00.000Z</time>
      </trkpt>
      <trkpt lat="43.77851" lon="5.87171">
        <ele>497</ele>
        <time>2025-02-10T20:46:26.000Z</time>
      </trkpt>
      <trkpt lat="43.77797" lon="5.87268">
        <ele>498</ele>
        <time>2025-02-10T20:48:18.000Z</time>
      </trkpt>
      <trkpt lat="43.77773" lon="5.87307">
        <ele>498</ele>
        <time>2025-02-10T20:49:01.000Z</time>
      </trkpt>
      <trkpt lat="43.77749" lon="5.87328">
        <ele>499</ele>
        <time>2025-02-10T20:49:43.000Z</time>
      </trkpt>
      <trkpt lat="43.77656" lon="5.87359">
        <ele>499</ele>
        <time>2025-02-10T20:51:33.000Z</time>
      </trkpt>
      <trkpt lat="43.77571" lon="5.87386">
        <ele>498</ele>
        <time>2025-02-10T20:53:13.000Z</time>
      </trkpt>
      <trkpt lat="43.77483" lon="5.87448">
        <ele>496</ele>
        <time>2025-02-10T20:55:06.000Z</time>
      </trkpt>
      <trkpt lat="43.77455" lon="5.87461">
        <ele>496</ele>
        <time>2025-02-10T20:55:39.000Z</time>
      </trkpt>
      <trkpt lat="43.77384" lon="5.87528">
        <ele>495</ele>
        <time>2025-02-10T20:57:17.000Z</time>
      </trkpt>
      <trkpt lat="43.77339" lon="5.87588">
        <ele>494</ele>
        <time>2025-02-10T20:58:29.000Z</time>
      </trkpt>
      <trkpt lat="43.77302" lon="5.87609">
        <ele>493</ele>
        <time>2025-02-10T20:59:15.000Z</time>
      </trkpt>
      <trkpt lat="43.77278" lon="5.87618">
        <ele>493</ele>
        <time>2025-02-10T20:59:44.000Z</time>
      </trkpt>
      <trkpt lat="43.77161" lon="5.87611">
        <ele>489</ele>
        <time>2025-02-10T21:01:58.000Z</time>
      </trkpt>
      <trkpt lat="43.77083" lon="5.87578">
        <ele>489</ele>
        <time>2025-02-10T21:03:31.000Z</time>
      </trkpt>
      <trkpt lat="43.77004" lon="5.87577">
        <ele>486</ele>
        <time>2025-02-10T21:05:01.000Z</time>
      </trkpt>
      <trkpt lat="43.76978" lon="5.87559">
        <ele>486</ele>
        <time>2025-02-10T21:05:34.000Z</time>
      </trkpt>
      <trkpt lat="43.76909" lon="5.87443">
        <ele>487</ele>
        <time>2025-02-10T21:07:49.000Z</time>
      </trkpt>
      <trkpt lat="43.76872" lon="5.87404">
        <ele>484</ele>
        <time>2025-02-10T21:08:41.000Z</time>
      </trkpt>
      <trkpt lat="43.76822" lon="5.87376">
        <ele>482</ele>
        <time>2025-02-10T21:09:44.000Z</time>
      </trkpt>
      <trkpt lat="43.76798" lon="5.8737">
        <ele>484</ele>
        <time>2025-02-10T21:10:32.000Z</time>
      </trkpt>
      <trkpt lat="43.76766" lon="5.87376">
        <ele>485</ele>
        <time>2025-02-10T21:11:19.000Z</time>
      </trkpt>
      <trkpt lat="43.76699" lon="5.87392">
        <ele>479</ele>
        <time>2025-02-10T21:12:37.000Z</time>
      </trkpt>
      <trkpt lat="43.76665" lon="5.87447">
        <ele>476</ele>
        <time>2025-02-10T21:13:37.000Z</time>
      </trkpt>
      <trkpt lat="43.76664" lon="5.87497">
        <ele>474</ele>
        <time>2025-02-10T21:14:18.000Z</time>
      </trkpt>
      <trkpt lat="43.76643" lon="5.87549">
        <ele>471</ele>
        <time>2025-02-10T21:15:07.000Z</time>
      </trkpt>
      <trkpt lat="43.7659" lon="5.87622">
        <ele>465</ele>
        <time>2025-02-10T21:16:33.000Z</time>
      </trkpt>
      <trkpt lat="43.76538" lon="5.87688">
        <ele>458</ele>
        <time>2025-02-10T21:17:54.000Z</time>
      </trkpt>
      <trkpt lat="43.76488" lon="5.87784">
        <ele>453</ele>
        <time>2025-02-10T21:19:32.000Z</time>
      </trkpt>
      <trkpt lat="43.76482" lon="5.87914">
        <ele>452</ele>
        <time>2025-02-10T21:21:19.000Z</time>
      </trkpt>
      <trkpt lat="43.76495" lon="5.87968">
        <ele>450</ele>
        <time>2025-02-10T21:22:06.000Z</time>
      </trkpt>
      <trkpt lat="43.76504" lon="5.88044">
        <ele>443</ele>
        <time>2025-02-10T21:23:10.000Z</time>
      </trkpt>
      <trkpt lat="43.76435" lon="5.88109">
        <ele>427</ele>
        <time>2025-02-10T21:24:46.000Z</time>
      </trkpt>
      <trkpt lat="43.76363" lon="5.88147">
        <ele>412</ele>
        <time>2025-02-10T21:26:14.000Z</time>
      </trkpt>
      <trkpt lat="43.763" lon="5.88192">
        <ele>404</ele>
        <time>2025-02-10T21:27:35.000Z</time>
      </trkpt>
      <trkpt lat="43.76225" lon="5.88242">
        <ele>397</ele>
        <time>2025-02-10T21:29:10.000Z</time>
      </trkpt>
      <trkpt lat="43.76168" lon="5.88299">
        <ele>390</ele>
        <time>2025-02-10T21:30:30.000Z</time>
      </trkpt>
      <trkpt lat="43.76165" lon="5.88327">
        <ele>387</ele>
        <time>2025-02-10T21:30:53.000Z</time>
      </trkpt>
      <trkpt lat="43.76139" lon="5.88348">
        <ele>381</ele>
        <time>2025-02-10T21:31:28.000Z</time>
      </trkpt>
      <trkpt lat="43.76113" lon="5.88347">
        <ele>380</ele>
        <time>2025-02-10T21:31:57.000Z</time>
      </trkpt>
      <trkpt lat="43.76101" lon="5.88371">
        <ele>379</ele>
        <time>2025-02-10T21:32:21.000Z</time>
      </trkpt>
      <trkpt lat="43.76107" lon="5.88381">
        <ele>378</ele>
        <time>2025-02-10T21:32:32.000Z</time>
      </trkpt>
      <trkpt lat="43.76179" lon="5.88376">
        <ele>375</ele>
        <time>2025-02-10T21:33:55.000Z</time>
      </trkpt>
      <trkpt lat="43.76137" lon="5.88458">
        <ele>370</ele>
        <time>2025-02-10T21:35:18.000Z</time>
      </trkpt>
      <trkpt lat="43.7611" lon="5.88507">
        <ele>366</ele>
        <time>2025-02-10T21:36:08.000Z</time>
      </trkpt>
      <trkpt lat="43.76056" lon="5.88546">
        <ele>360</ele>
        <time>2025-02-10T21:37:18.000Z</time>
      </trkpt>
      <trkpt lat="43.76049" lon="5.88611">
        <ele>355</ele>
        <time>2025-02-10T21:38:12.000Z</time>
      </trkpt>
      <trkpt lat="43.76018" lon="5.88673">
        <ele>353</ele>
        <time>2025-02-10T21:39:15.000Z</time>
      </trkpt>
      <trkpt lat="43.76011" lon="5.88709">
        <ele>354</ele>
        <time>2025-02-10T21:39:55.000Z</time>
      </trkpt>
      <trkpt lat="43.76033" lon="5.88746">
        <ele>354</ele>
        <time>2025-02-10T21:40:35.000Z</time>
      </trkpt>
      <trkpt lat="43.7608" lon="5.88786">
        <ele>351</ele>
        <time>2025-02-10T21:41:38.000Z</time>
      </trkpt>
      <trkpt lat="43.76123" lon="5.88846">
        <ele>341</ele>
        <time>2025-02-10T21:42:48.000Z</time>
      </trkpt>
      <trkpt lat="43.76164" lon="5.88875">
        <ele>334</ele>
        <time>2025-02-10T21:43:41.000Z</time>
      </trkpt>
      <trkpt lat="43.76171" lon="5.88903">
        <ele>332</ele>
        <time>2025-02-10T21:44:06.000Z</time>
      </trkpt>
      <trkpt lat="43.76152" lon="5.88969">
        <ele>327</ele>
        <time>2025-02-10T21:45:05.000Z</time>
      </trkpt>
      <trkpt lat="43.76166" lon="5.89027">
        <ele>326</ele>
        <time>2025-02-10T21:45:55.000Z</time>
      </trkpt>
      <trkpt lat="43.76158" lon="5.89083">
        <ele>325</ele>
        <time>2025-02-10T21:46:43.000Z</time>
      </trkpt>
      <trkpt lat="43.76098" lon="5.89126">
        <ele>321</ele>
        <time>2025-02-10T21:48:01.000Z</time>
      </trkpt>
      <trkpt lat="43.76054" lon="5.89115">
        <ele>320</ele>
        <time>2025-02-10T21:48:52.000Z</time>
      </trkpt>
      <trkpt lat="43.76054" lon="5.89145">
        <ele>318</ele>
        <time>2025-02-10T21:49:17.000Z</time>
      </trkpt>
      <trkpt lat="43.76066" lon="5.89168">
        <ele>316</ele>
        <time>2025-02-10T21:49:40.000Z</time>
      </trkpt>
      <trkpt lat="43.76067" lon="5.89183">
        <ele>316</ele>
        <time>2025-02-10T21:49:53.000Z</time>
      </trkpt>
      <trkpt lat="43.75994" lon="5.8926">
        <ele>320</ele>
        <time>2025-02-10T21:52:20.000Z</time>
      </trkpt>
      <trkpt lat="43.76008" lon="5.89267">
        <ele>321</ele>
        <time>2025-02-10T21:52:47.000Z</time>
      </trkpt>
      <trkpt lat="43.76037" lon="5.89262">
        <ele>323</ele>
        <time>2025-02-10T21:53:41.000Z</time>
      </trkpt>
      <trkpt lat="43.76053" lon="5.89253">
        <ele>323</ele>
        <time>2025-02-10T21:54:00.000Z</time>
      </trkpt>
      <trkpt lat="43.76106" lon="5.89228">
        <ele>321</ele>
        <time>2025-02-10T21:55:05.000Z</time>
      </trkpt>
      <trkpt lat="43.76137" lon="5.89233">
        <ele>323</ele>
        <time>2025-02-10T21:56:01.000Z</time>
      </trkpt>
      <trkpt lat="43.76199" lon="5.89267">
        <ele>327</ele>
        <time>2025-02-10T21:57:58.000Z</time>
      </trkpt>
      <trkpt lat="43.76247" lon="5.89298">
        <ele>331</ele>
        <time>2025-02-10T21:59:40.000Z</time>
      </trkpt>
      <trkpt lat="43.76308" lon="5.89319">
        <ele>330</ele>
        <time>2025-02-10T22:00:52.000Z</time>
      </trkpt>
      <trkpt lat="43.76401" lon="5.89381">
        <ele>332</ele>
        <time>2025-02-10T22:03:11.000Z</time>
      </trkpt>
      <trkpt lat="43.76433" lon="5.89382">
        <ele>331</ele>
        <time>2025-02-10T22:03:48.000Z</time>
      </trkpt>
      <trkpt lat="43.7652" lon="5.89429">
        <ele>330</ele>
        <time>2025-02-10T22:05:35.000Z</time>
      </trkpt>
      <trkpt lat="43.76501" lon="5.89435">
        <ele>334</ele>
        <time>2025-02-10T22:06:38.000Z</time>
      </trkpt>
      <trkpt lat="43.76548" lon="5.89491">
        <ele>335</ele>
        <time>2025-02-10T22:08:00.000Z</time>
      </trkpt>
      <trkpt lat="43.7662" lon="5.89592">
        <ele>347</ele>
        <time>2025-02-10T22:12:01.000Z</time>
      </trkpt>
      <trkpt lat="43.76664" lon="5.89665">
        <ele>349</ele>
        <time>2025-02-10T22:13:41.000Z</time>
      </trkpt>
      <trkpt lat="43.76667" lon="5.89738">
        <ele>350</ele>
        <time>2025-02-10T22:14:52.000Z</time>
      </trkpt>
      <trkpt lat="43.76677" lon="5.89761">
        <ele>348</ele>
        <time>2025-02-10T22:15:15.000Z</time>
      </trkpt>
      <trkpt lat="43.76695" lon="5.89796">
        <ele>349</ele>
        <time>2025-02-10T22:16:00.000Z</time>
      </trkpt>
    </trkseg>
  </trk>
</gpx>